Time,TemperatureF,DewpointF,PressureIn,WindDirection,WindDirectionDegrees,WindSpeedMPH,WindSpeedGustMPH,Humidity,HourlyPrecipIn,Conditions,Clouds,dailyrainin,SoftwareType,DateUTC
2013-04-17 00:01:00,25.0,19.0,30.35,NW,313,0.0,1.0,76,0.00,,,0.00,,2013-04-17 07:01:00,
2013-04-17 00:21:00,25.0,19.0,30.35,NNW,343,0.0,1.0,78,0.00,,,0.00,,2013-04-17 07:21:00,
2013-04-17 00:32:00,25.0,19.0,30.35,NNW,343,0.0,1.0,79,0.00,,,0.00,,2013-04-17 07:32:00,
2013-04-17 00:42:00,25.0,19.0,30.35,NNW,343,0.0,1.0,79,0.00,,,0.00,,2013-04-17 07:42:00,
2013-04-17 00:52:00,26.0,19.0,30.35,NNW,343,0.0,1.0,76,0.00,,,0.00,,2013-04-17 07:52:00,
2013-04-17 01:02:00,24.0,18.0,30.35,NW,307,0.0,1.0,79,0.00,,,0.00,,2013-04-17 08:02:00,
2013-04-17 01:11:00,24.0,18.0,30.35,NW,307,0.0,1.0,79,0.00,,,0.00,,2013-04-17 08:11:00,
2013-04-17 01:22:00,25.0,20.0,30.35,North,358,0.0,2.0,80,0.00,,,0.00,,2013-04-17 08:22:00,
2013-04-17 01:32:00,24.0,19.0,30.36,NW,316,0.0,1.0,80,0.00,,,0.00,,2013-04-17 08:32:00,
2013-04-17 01:42:00,24.0,19.0,30.36,NW,316,0.0,1.0,80,0.00,,,0.00,,2013-04-17 08:42:00,
2013-04-17 01:52:00,24.0,19.0,30.36,NW,316,0.0,1.0,80,0.00,,,0.00,,2013-04-17 08:52:00,
2013-04-17 02:01:00,25.0,19.0,30.36,NW,317,0.0,1.0,77,0.00,,,0.00,,2013-04-17 09:01:00,
2013-04-17 02:12:00,25.0,19.0,30.36,NW,317,0.0,1.0,77,0.00,,,0.00,,2013-04-17 09:12:00,
2013-04-17 02:22:00,25.0,19.0,30.36,NNW,341,0.0,2.0,78,0.00,,,0.00,,2013-04-17 09:22:00,
2013-04-17 02:32:00,25.0,18.0,30.36,NNW,333,0.0,1.0,74,0.00,,,0.00,,2013-04-17 09:32:00,
2013-04-17 02:42:00,25.0,18.0,30.36,NNW,333,0.0,1.0,74,0.00,,,0.00,,2013-04-17 09:42:00,
2013-04-17 02:52:00,28.0,19.0,30.36,NNW,330,1.0,2.0,68,0.00,,,0.00,,2013-04-17 09:52:00,
2013-04-17 03:02:00,26.0,18.0,30.36,WSW,252,0.0,2.0,72,0.00,,,0.00,,2013-04-17 10:02:00,
2013-04-17 03:12:00,26.0,18.0,30.36,WSW,252,0.0,2.0,72,0.00,,,0.00,,2013-04-17 10:12:00,
2013-04-17 03:22:00,25.0,17.0,30.36,SE,140,0.0,2.0,72,0.00,,,0.00,,2013-04-17 10:22:00,
2013-04-17 03:32:00,24.0,17.0,30.37,SE,140,0.0,2.0,74,0.00,,,0.00,,2013-04-17 10:32:00,
2013-04-17 03:42:00,24.0,17.0,30.37,SE,140,0.0,2.0,74,0.00,,,0.00,,2013-04-17 10:42:00,
2013-04-17 03:52:00,24.0,17.0,30.37,SE,140,0.0,1.0,75,0.00,,,0.00,,2013-04-17 10:52:00,
2013-04-17 04:02:00,24.0,17.0,30.37,SE,140,0.0,1.0,74,0.00,,,0.00,,2013-04-17 11:02:00,
2013-04-17 04:11:00,24.0,17.0,30.37,SE,140,0.0,1.0,74,0.00,,,0.00,,2013-04-17 11:11:00,
2013-04-17 04:22:00,24.0,17.0,30.37,SE,140,0.0,1.0,75,0.00,,,0.00,,2013-04-17 11:22:00,
2013-04-17 04:31:00,26.0,18.0,30.37,NNW,337,1.0,3.0,70,0.00,,,0.00,,2013-04-17 11:31:00,
2013-04-17 04:42:00,26.0,18.0,30.37,NNW,337,1.0,3.0,70,0.00,,,0.00,,2013-04-17 11:42:00,
2013-04-17 04:52:00,24.0,15.0,30.38,SW,235,0.0,4.0,68,0.00,,,0.00,,2013-04-17 11:52:00,
2013-04-17 05:02:00,24.0,17.0,30.38,West,274,0.0,1.0,75,0.00,,,0.00,,2013-04-17 12:02:00,
2013-04-17 05:12:00,24.0,17.0,30.38,West,274,0.0,1.0,75,0.00,,,0.00,,2013-04-17 12:12:00,
2013-04-17 05:22:00,23.0,17.0,30.38,NW,325,1.0,3.0,76,0.00,,,0.00,,2013-04-17 12:22:00,
2013-04-17 05:32:00,24.0,17.0,30.38,NNW,329,0.0,1.0,75,0.00,,,0.00,,2013-04-17 12:32:00,
2013-04-17 05:42:00,24.0,17.0,30.38,NNW,329,0.0,1.0,75,0.00,,,0.00,,2013-04-17 12:42:00,
2013-04-17 05:52:00,22.0,16.0,30.39,NNW,330,0.0,1.0,76,0.00,,,0.00,,2013-04-17 12:52:00,
2013-04-17 06:01:00,21.0,15.0,30.39,NNW,329,0.0,1.0,77,0.00,,,0.00,,2013-04-17 13:01:00,
2013-04-17 06:11:00,21.0,15.0,30.39,NNW,329,0.0,1.0,77,0.00,,,0.00,,2013-04-17 13:11:00,
2013-04-17 06:22:00,20.0,15.0,30.39,NNW,329,0.0,0.0,79,0.00,,,0.00,,2013-04-17 13:22:00,
2013-04-17 06:32:00,21.0,17.0,30.40,NNW,329,0.0,1.0,84,0.00,,,0.00,,2013-04-17 13:32:00,
2013-04-17 06:42:00,21.0,17.0,30.40,NNW,329,0.0,1.0,84,0.00,,,0.00,,2013-04-17 13:42:00,
2013-04-17 06:52:00,24.0,19.0,30.40,NNW,341,1.0,2.0,81,0.00,,,0.00,,2013-04-17 13:52:00,
2013-04-17 07:01:00,26.0,20.0,30.41,North,2,0.0,2.0,77,0.00,,,0.00,,2013-04-17 14:01:00,
2013-04-17 07:12:00,26.0,20.0,30.41,North,2,0.0,2.0,77,0.00,,,0.00,,2013-04-17 14:12:00,
2013-04-17 07:22:00,26.0,21.0,30.41,NE,50,3.0,4.0,80,0.00,,,0.00,,2013-04-17 14:22:00,
2013-04-17 07:32:00,26.0,20.0,30.41,NE,42,2.0,3.0,78,0.00,,,0.00,,2013-04-17 14:32:00,
2013-04-17 07:42:00,28.0,20.0,30.42,NE,40,1.0,2.0,71,0.00,,,0.00,,2013-04-17 14:42:00,
2013-04-17 07:52:00,28.0,20.0,30.42,NE,40,1.0,2.0,71,0.00,,,0.00,,2013-04-17 14:52:00,
2013-04-17 08:02:00,28.0,20.0,30.42,NE,40,1.0,2.0,71,0.00,,,0.00,,2013-04-17 15:02:00,
2013-04-17 08:11:00,28.0,20.0,30.42,NE,40,1.0,2.0,71,0.00,,,0.00,,2013-04-17 15:11:00,
2013-04-17 08:22:00,28.0,20.0,30.42,NE,40,1.0,2.0,71,0.00,,,0.00,,2013-04-17 15:22:00,
2013-04-17 08:33:00,36.0,21.0,30.42,NE,53,1.0,3.0,54,0.00,,,0.00,,2013-04-17 15:33:00,
2013-04-17 08:43:00,36.0,21.0,30.42,NE,53,1.0,3.0,54,0.00,,,0.00,,2013-04-17 15:43:00,
2013-04-17 08:53:00,36.0,21.0,30.42,NE,53,1.0,3.0,54,0.00,,,0.00,,2013-04-17 15:53:00,
2013-04-17 09:03:00,37.0,21.0,30.42,NNE,25,0.0,2.0,52,0.00,,,0.00,,2013-04-17 16:03:00,
2013-04-17 09:12:00,37.0,21.0,30.42,NNE,25,0.0,2.0,52,0.00,,,0.00,,2013-04-17 16:12:00,
2013-04-17 09:22:00,39.0,21.0,30.42,SW,222,1.0,3.0,48,0.00,,,0.00,,2013-04-17 16:22:00,
2013-04-17 09:32:00,39.0,20.0,30.42,SSW,212,1.0,4.0,46,0.00,,,0.00,,2013-04-17 16:32:00,
2013-04-17 09:42:00,39.0,20.0,30.42,SSW,212,1.0,4.0,46,0.00,,,0.00,,2013-04-17 16:42:00,
2013-04-17 09:52:00,40.0,21.0,30.42,SW,227,1.0,3.0,46,0.00,,,0.00,,2013-04-17 16:52:00,
2013-04-17 10:02:00,41.0,21.0,30.42,WSW,247,0.0,4.0,45,0.00,,,0.00,,2013-04-17 17:02:00,
2013-04-17 10:12:00,41.0,21.0,30.42,WSW,247,0.0,4.0,45,0.00,,,0.00,,2013-04-17 17:12:00,
2013-04-17 10:22:00,41.0,21.0,30.42,WSW,247,0.0,4.0,45,0.00,,,0.00,,2013-04-17 17:22:00,
2013-04-17 10:32:00,43.0,20.0,30.41,SE,126,2.0,5.0,39,0.00,,,0.00,,2013-04-17 17:32:00,
2013-04-17 10:42:00,43.0,20.0,30.41,SE,126,2.0,5.0,39,0.00,,,0.00,,2013-04-17 17:42:00,
2013-04-17 10:52:00,43.0,20.0,30.41,SSE,151,0.0,7.0,40,0.00,,,0.00,,2013-04-17 17:52:00,
2013-04-17 11:02:00,44.0,20.0,30.41,WSW,238,6.0,11.0,38,0.00,,,0.00,,2013-04-17 18:02:00,
2013-04-17 11:12:00,44.0,20.0,30.41,WSW,238,6.0,11.0,38,0.00,,,0.00,,2013-04-17 18:12:00,
2013-04-17 11:22:00,44.0,19.0,30.41,SSW,207,5.0,10.0,36,0.00,,,0.00,,2013-04-17 18:22:00,
2013-04-17 11:32:00,45.0,17.0,30.40,South,191,3.0,9.0,32,0.00,,,0.00,,2013-04-17 18:32:00,
2013-04-17 11:42:00,45.0,17.0,30.40,South,191,3.0,9.0,32,0.00,,,0.00,,2013-04-17 18:42:00,
2013-04-17 11:52:00,46.0,16.0,30.39,SSW,197,8.0,10.0,30,0.00,,,0.00,,2013-04-17 18:52:00,
2013-04-17 12:02:00,46.0,16.0,30.39,SSW,197,8.0,10.0,30,0.00,,,0.00,,2013-04-17 19:02:00,
2013-04-17 12:12:00,46.0,16.0,30.39,SSW,197,8.0,10.0,30,0.00,,,0.00,,2013-04-17 19:12:00,
2013-04-17 12:21:00,47.0,16.0,30.39,SSW,207,4.0,15.0,29,0.00,,,0.00,,2013-04-17 19:21:00,
2013-04-17 12:32:00,47.0,21.0,30.38,SW,217,9.0,14.0,35,0.00,,,0.00,,2013-04-17 19:32:00,
2013-04-17 12:42:00,47.0,21.0,30.38,SW,217,9.0,14.0,35,0.00,,,0.00,,2013-04-17 19:42:00,
2013-04-17 12:52:00,47.0,21.0,30.38,SW,217,9.0,14.0,35,0.00,,,0.00,,2013-04-17 19:52:00,
2013-04-17 13:02:00,49.0,16.0,30.37,NE,38,1.0,4.0,27,0.00,,,0.00,,2013-04-17 20:02:00,
2013-04-17 13:12:00,49.0,16.0,30.37,NE,38,1.0,4.0,27,0.00,,,0.00,,2013-04-17 20:12:00,
2013-04-17 13:22:00,50.0,18.0,30.36,SW,217,7.0,11.0,28,0.00,,,0.00,,2013-04-17 20:22:00,
2013-04-17 13:32:00,49.0,20.0,30.36,SW,224,4.0,10.0,31,0.00,,,0.00,,2013-04-17 20:32:00,
2013-04-17 13:42:00,49.0,20.0,30.36,SW,224,4.0,10.0,31,0.00,,,0.00,,2013-04-17 20:42:00,
2013-04-17 13:52:00,49.0,20.0,30.36,SW,224,4.0,10.0,31,0.00,,,0.00,,2013-04-17 20:52:00,
2013-04-17 14:02:00,50.0,19.0,30.35,WNW,300,5.0,12.0,29,0.00,,,0.00,,2013-04-17 21:02:00,
2013-04-17 14:12:00,50.0,19.0,30.35,WNW,300,5.0,12.0,29,0.00,,,0.00,,2013-04-17 21:12:00,
2013-04-17 14:22:00,50.0,17.0,30.34,SSW,210,2.0,17.0,27,0.00,,,0.00,,2013-04-17 21:22:00,
2013-04-17 14:32:00,51.0,17.0,30.34,SSW,211,9.0,15.0,26,0.00,,,0.00,,2013-04-17 21:32:00,
2013-04-17 14:42:00,51.0,17.0,30.34,SSW,211,9.0,15.0,26,0.00,,,0.00,,2013-04-17 21:42:00,
2013-04-17 14:53:00,51.0,21.0,30.33,SW,217,12.0,17.0,30,0.00,,,0.00,,2013-04-17 21:53:00,
2013-04-17 15:02:00,51.0,17.0,30.32,SW,227,13.0,16.0,26,0.00,,,0.00,,2013-04-17 22:02:00,
2013-04-17 15:12:00,51.0,17.0,30.32,SW,227,13.0,16.0,26,0.00,,,0.00,,2013-04-17 22:12:00,
2013-04-17 15:22:00,51.0,16.0,30.32,SSW,210,5.0,15.0,25,0.00,,,0.00,,2013-04-17 22:22:00,
2013-04-17 15:33:00,52.0,19.0,30.32,SSW,197,9.0,18.0,27,0.00,,,0.00,,2013-04-17 22:33:00,
2013-04-17 15:42:00,52.0,19.0,30.32,SSW,197,9.0,18.0,27,0.00,,,0.00,,2013-04-17 22:42:00,
2013-04-17 15:52:00,52.0,18.0,30.31,WSW,253,5.0,17.0,26,0.00,,,0.00,,2013-04-17 22:52:00,
2013-04-17 16:02:00,52.0,19.0,30.31,SW,235,9.0,18.0,27,0.00,,,0.00,,2013-04-17 23:02:00,
2013-04-17 16:12:00,52.0,20.0,30.31,SW,231,13.0,19.0,28,0.00,,,0.00,,2013-04-17 23:12:00,
2013-04-17 16:22:00,52.0,20.0,30.31,SW,231,13.0,19.0,28,0.00,,,0.00,,2013-04-17 23:22:00,
2013-04-17 16:32:00,52.0,18.0,30.30,SSW,205,7.0,20.0,26,0.00,,,0.00,,2013-04-17 23:32:00,
2013-04-17 16:42:00,52.0,19.0,30.29,SSW,202,8.0,16.0,27,0.00,,,0.00,,2013-04-17 23:42:00,
2013-04-17 16:52:00,52.0,19.0,30.29,SSW,202,8.0,16.0,27,0.00,,,0.00,,2013-04-17 23:52:00,
2013-04-17 17:02:00,53.0,21.0,30.29,SW,227,12.0,16.0,28,0.00,,,0.00,,2013-04-18 00:02:00,
2013-04-17 17:12:00,52.0,20.0,30.29,WSW,247,5.0,23.0,28,0.00,,,0.00,,2013-04-18 00:12:00,
2013-04-17 17:22:00,52.0,20.0,30.29,WSW,247,5.0,23.0,28,0.00,,,0.00,,2013-04-18 00:22:00,
2013-04-17 17:32:00,51.0,21.0,30.29,SW,222,7.0,10.0,30,0.00,,,0.00,,2013-04-18 00:32:00,
2013-04-17 17:42:00,50.0,20.0,30.29,SW,236,12.0,17.0,30,0.00,,,0.00,,2013-04-18 00:42:00,
2013-04-17 17:52:00,50.0,20.0,30.29,SW,236,12.0,17.0,30,0.00,,,0.00,,2013-04-18 00:52:00,
2013-04-17 18:02:00,51.0,21.0,30.29,SW,224,7.0,17.0,30,0.00,,,0.00,,2013-04-18 01:02:00,
2013-04-17 18:12:00,50.0,21.0,30.28,West,274,7.0,15.0,31,0.00,,,0.00,,2013-04-18 01:12:00,
2013-04-17 18:22:00,50.0,21.0,30.28,West,274,7.0,15.0,31,0.00,,,0.00,,2013-04-18 01:22:00,
2013-04-17 18:32:00,50.0,21.0,30.28,SSW,212,8.0,17.0,31,0.00,,,0.00,,2013-04-18 01:32:00,
2013-04-17 18:42:00,49.0,21.0,30.28,SSW,213,8.0,13.0,33,0.00,,,0.00,,2013-04-18 01:42:00,
2013-04-17 18:52:00,49.0,21.0,30.28,SSW,213,8.0,13.0,33,0.00,,,0.00,,2013-04-18 01:52:00,
2013-04-17 19:02:00,48.0,20.0,30.27,SSW,211,8.0,15.0,32,0.00,,,0.00,,2013-04-18 02:02:00,
2013-04-17 19:12:00,48.0,21.0,30.27,SW,214,6.0,13.0,34,0.00,,,0.00,,2013-04-18 02:12:00,
2013-04-17 19:22:00,48.0,21.0,30.27,SW,214,6.0,13.0,34,0.00,,,0.00,,2013-04-18 02:22:00,
2013-04-17 19:32:00,47.0,21.0,30.27,SW,217,2.0,7.0,35,0.00,,,0.00,,2013-04-18 02:32:00,
2013-04-17 19:42:00,47.0,21.0,30.27,SW,217,2.0,7.0,35,0.00,,,0.00,,2013-04-18 02:42:00,
2013-04-17 19:51:00,47.0,21.0,30.27,SW,217,2.0,7.0,35,0.00,,,0.00,,2013-04-18 02:51:00,
2013-04-17 20:02:00,43.0,22.0,30.27,WNW,298,0.0,2.0,42,0.00,,,0.00,,2013-04-18 03:02:00,
2013-04-17 20:12:00,42.0,22.0,30.27,WNW,296,0.0,1.0,45,0.00,,,0.00,,2013-04-18 03:12:00,
2013-04-17 20:22:00,42.0,22.0,30.27,WNW,296,0.0,1.0,45,0.00,,,0.00,,2013-04-18 03:22:00,
2013-04-17 20:33:00,41.0,23.0,30.28,West,266,1.0,3.0,49,0.00,,,0.00,,2013-04-18 03:33:00,
2013-04-17 20:43:00,41.0,22.0,30.28,WNW,284,1.0,2.0,47,0.00,,,0.00,,2013-04-18 03:43:00,
2013-04-17 20:53:00,41.0,22.0,30.28,WNW,284,1.0,2.0,47,0.00,,,0.00,,2013-04-18 03:53:00,
2013-04-17 21:03:00,41.0,23.0,30.28,WNW,283,0.0,2.0,49,0.00,,,0.00,,2013-04-18 04:03:00,
2013-04-17 21:13:00,41.0,23.0,30.28,WNW,283,0.0,2.0,49,0.00,,,0.00,,2013-04-18 04:13:00,
2013-04-17 21:23:00,41.0,23.0,30.28,West,279,1.0,4.0,49,0.00,,,0.00,,2013-04-18 04:23:00,
2013-04-17 21:33:00,41.0,22.0,30.28,SW,219,5.0,8.0,47,0.00,,,0.00,,2013-04-18 04:33:00,
2013-04-17 21:43:00,41.0,23.0,30.28,SW,233,4.0,9.0,48,0.00,,,0.00,,2013-04-18 04:43:00,
2013-04-17 21:52:00,41.0,23.0,30.28,SW,233,4.0,9.0,48,0.00,,,0.00,,2013-04-18 04:52:00,
2013-04-17 22:02:00,41.0,23.0,30.28,SSW,203,2.0,9.0,49,0.00,,,0.00,,2013-04-18 05:02:00,
2013-04-17 22:12:00,42.0,23.0,30.27,SW,230,3.0,9.0,47,0.00,,,0.00,,2013-04-18 05:12:00,
2013-04-17 22:21:00,42.0,23.0,30.27,SW,230,3.0,9.0,47,0.00,,,0.00,,2013-04-18 05:21:00,
2013-04-17 22:32:00,42.0,23.0,30.28,SW,214,5.0,10.0,46,0.00,,,0.00,,2013-04-18 05:32:00,
2013-04-17 22:42:00,43.0,23.0,30.28,SW,217,6.0,10.0,45,0.00,,,0.00,,2013-04-18 05:42:00,
2013-04-17 22:52:00,43.0,23.0,30.28,SW,217,6.0,10.0,45,0.00,,,0.00,,2013-04-18 05:52:00,
2013-04-17 23:02:00,43.0,23.0,30.28,South,184,4.0,10.0,45,0.00,,,0.00,,2013-04-18 06:02:00,
2013-04-17 23:12:00,43.0,23.0,30.28,South,184,4.0,10.0,45,0.00,,,0.00,,2013-04-18 06:12:00,
2013-04-17 23:22:00,43.0,23.0,30.28,SW,219,6.0,13.0,44,0.00,,,0.00,,2013-04-18 06:22:00,
2013-04-17 23:32:00,43.0,22.0,30.28,SW,225,8.0,16.0,43,0.00,,,0.00,,2013-04-18 06:32:00,
2013-04-17 23:42:00,43.0,23.0,30.28,SW,217,9.0,14.0,44,0.00,,,0.00,,2013-04-18 06:42:00,
2013-04-17 23:52:00,43.0,23.0,30.28,SW,217,9.0,14.0,44,0.00,,,0.00,,2013-04-18 06:52:00,